sensor_id;sensor_type;location;lat;lon;timestamp;noise_LAeq;noise_LA_min;noise_LA_max;noise_LA01;noise_LA95
70245;Laerm;57637;49.272;8.590;2023-04-03T00:00:56;44.65;40.25;50.00;;
70245;Laerm;57637;49.272;8.590;2023-04-03T00:03:22;44.89;39.55;50.94;;
70245;Laerm;57637;49.272;8.590;2023-04-03T00:05:48;43.99;38.56;49.35;;
70245;Laerm;57637;49.272;8.590;2023-04-03T00:08:14;43.48;39.01;51.54;;
70245;Laerm;57637;49.272;8.590;2023-04-03T00:10:39;43.91;39.22;49.62;;
70245;Laerm;57637;49.272;8.590;2023-04-03T00:13:06;44.94;38.81;51.40;;
70245;Laerm;57637;49.272;8.590;2023-04-03T00:15:32;43.90;39.17;50.49;;
70245;Laerm;57637;49.272;8.590;2023-04-03T00:17:57;44.07;39.36;49.41;;
70245;Laerm;57637;49.272;8.590;2023-04-03T00:20:23;43.51;38.99;48.55;;
70245;Laerm;57637;49.272;8.590;2023-04-03T00:22:48;43.51;38.71;50.73;;
70245;Laerm;57637;49.272;8.590;2023-04-03T00:25:13;43.37;38.99;51.22;;
70245;Laerm;57637;49.272;8.590;2023-04-03T00:27:40;43.28;37.95;48.71;;
70245;Laerm;57637;49.272;8.590;2023-04-03T00:30:07;43.30;38.57;48.65;;
70245;Laerm;57637;49.272;8.590;2023-04-03T00:32:33;42.76;37.98;51.03;;
70245;Laerm;57637;49.272;8.590;2023-04-03T00:34:59;43.60;38.34;51.89;;
70245;Laerm;57637;49.272;8.590;2023-04-03T00:37:24;44.24;40.00;51.29;;
70245;Laerm;57637;49.272;8.590;2023-04-03T00:39:50;45.12;38.81;51.92;;
70245;Laerm;57637;49.272;8.590;2023-04-03T00:42:15;44.86;40.99;50.06;;
70245;Laerm;57637;49.272;8.590;2023-04-03T00:47:08;44.65;39.32;51.89;;
70245;Laerm;57637;49.272;8.590;2023-04-03T00:49:35;44.10;39.12;50.76;;
70245;Laerm;57637;49.272;8.590;2023-04-03T00:52:02;43.70;39.58;51.19;;
70245;Laerm;57637;49.272;8.590;2023-04-03T00:54:29;44.02;39.36;50.33;;
70245;Laerm;57637;49.272;8.590;2023-04-03T00:56:55;43.98;39.56;50.31;;
70245;Laerm;57637;49.272;8.590;2023-04-03T00:59:34;44.65;39.12;48.85;;
70245;Laerm;57637;49.272;8.590;2023-04-03T01:02:00;45.11;40.57;54.07;;
70245;Laerm;57637;49.272;8.590;2023-04-03T01:04:36;45.08;39.76;52.44;;
70245;Laerm;57637;49.272;8.590;2023-04-03T01:07:08;43.84;39.84;50.68;;
70245;Laerm;57637;49.272;8.590;2023-04-03T01:09:35;44.73;40.54;49.71;;
70245;Laerm;57637;49.272;8.590;2023-04-03T01:14:46;45.36;40.03;64.72;;
70245;Laerm;57637;49.272;8.590;2023-04-03T01:17:34;45.13;40.88;51.26;;
70245;Laerm;57637;49.272;8.590;2023-04-03T01:25:31;45.95;40.41;51.30;;
70245;Laerm;57637;49.272;8.590;2023-04-03T01:27:57;45.07;41.22;48.73;;
70245;Laerm;57637;49.272;8.590;2023-04-03T01:30:39;45.21;40.72;55.62;;
70245;Laerm;57637;49.272;8.590;2023-04-03T01:33:08;45.95;41.32;54.95;;
70245;Laerm;57637;49.272;8.590;2023-04-03T01:35:33;46.00;42.05;51.71;;
70245;Laerm;57637;49.272;8.590;2023-04-03T01:37:58;45.27;40.68;51.78;;
70245;Laerm;57637;49.272;8.590;2023-04-03T01:40:25;46.55;42.12;54.60;;
70245;Laerm;57637;49.272;8.590;2023-04-03T01:42:51;45.66;40.85;50.77;;
70245;Laerm;57637;49.272;8.590;2023-04-03T01:45:16;45.83;41.85;51.12;;
70245;Laerm;57637;49.272;8.590;2023-04-03T01:47:42;45.86;41.08;51.98;;
70245;Laerm;57637;49.272;8.590;2023-04-03T01:50:07;46.65;41.37;55.06;;
70245;Laerm;57637;49.272;8.590;2023-04-03T01:52:33;46.38;41.45;51.89;;
70245;Laerm;57637;49.272;8.590;2023-04-03T01:54:59;46.51;42.32;53.30;;
70245;Laerm;57637;49.272;8.590;2023-04-03T01:57:25;46.93;42.63;53.46;;
70245;Laerm;57637;49.272;8.590;2023-04-03T01:59:50;46.07;41.07;51.68;;
70245;Laerm;57637;49.272;8.590;2023-04-03T02:02:16;45.20;41.36;51.43;;
70245;Laerm;57637;49.272;8.590;2023-04-03T02:04:41;45.87;40.48;52.46;;
70245;Laerm;57637;49.272;8.590;2023-04-03T02:07:07;46.01;41.21;50.62;;
70245;Laerm;57637;49.272;8.590;2023-04-03T02:09:32;45.85;41.74;52.28;;
70245;Laerm;57637;49.272;8.590;2023-04-03T02:11:58;47.00;42.71;52.12;;
70245;Laerm;57637;49.272;8.590;2023-04-03T02:14:23;46.85;42.91;51.64;;
70245;Laerm;57637;49.272;8.590;2023-04-03T02:16:49;47.07;42.59;50.98;;
70245;Laerm;57637;49.272;8.590;2023-04-03T02:19:15;47.16;42.79;51.59;;
70245;Laerm;57637;49.272;8.590;2023-04-03T02:21:41;47.08;43.26;51.01;;
70245;Laerm;57637;49.272;8.590;2023-04-03T02:24:06;47.65;43.17;51.95;;
70245;Laerm;57637;49.272;8.590;2023-04-03T02:26:32;46.89;43.06;51.73;;
70245;Laerm;57637;49.272;8.590;2023-04-03T02:28:57;46.76;42.85;50.15;;
70245;Laerm;57637;49.272;8.590;2023-04-03T02:31:23;47.37;43.80;50.97;;
70245;Laerm;57637;49.272;8.590;2023-04-03T02:33:49;48.26;44.33;60.39;;
70245;Laerm;57637;49.272;8.590;2023-04-03T02:36:14;48.19;44.66;54.42;;
70245;Laerm;57637;49.272;8.590;2023-04-03T02:38:39;47.50;43.39;52.25;;
70245;Laerm;57637;49.272;8.590;2023-04-03T02:41:07;48.67;44.69;55.94;;
70245;Laerm;57637;49.272;8.590;2023-04-03T02:43:33;48.14;44.33;52.60;;
70245;Laerm;57637;49.272;8.590;2023-04-03T02:45:58;48.16;44.39;52.51;;
70245;Laerm;57637;49.272;8.590;2023-04-03T02:48:24;49.48;44.91;58.33;;
70245;Laerm;57637;49.272;8.590;2023-04-03T02:50:50;48.95;43.98;54.72;;
70245;Laerm;57637;49.272;8.590;2023-04-03T02:53:16;48.94;44.97;53.94;;
70245;Laerm;57637;49.272;8.590;2023-04-03T02:55:41;49.20;44.99;54.07;;
70245;Laerm;57637;49.272;8.590;2023-04-03T02:58:07;49.86;46.46;53.61;;
70245;Laerm;57637;49.272;8.590;2023-04-03T03:00:33;50.48;46.06;58.50;;
70245;Laerm;57637;49.272;8.590;2023-04-03T03:02:58;51.53;46.76;56.73;;
70245;Laerm;57637;49.272;8.590;2023-04-03T03:05:24;50.63;47.33;55.87;;
70245;Laerm;57637;49.272;8.590;2023-04-03T03:07:49;50.67;46.79;56.14;;
70245;Laerm;57637;49.272;8.590;2023-04-03T03:10:15;50.86;47.07;54.35;;
70245;Laerm;57637;49.272;8.590;2023-04-03T03:12:40;51.37;47.56;55.26;;
70245;Laerm;57637;49.272;8.590;2023-04-03T03:15:06;50.84;46.33;54.31;;
70245;Laerm;57637;49.272;8.590;2023-04-03T03:17:32;50.19;46.13;54.93;;
70245;Laerm;57637;49.272;8.590;2023-04-03T03:19:57;50.22;46.18;54.17;;
70245;Laerm;57637;49.272;8.590;2023-04-03T03:22:23;50.27;45.06;56.05;;
70245;Laerm;57637;49.272;8.590;2023-04-03T03:24:48;49.98;45.68;55.26;;
70245;Laerm;57637;49.272;8.590;2023-04-03T03:27:13;50.06;46.58;55.26;;
70245;Laerm;57637;49.272;8.590;2023-04-03T03:29:39;50.74;46.32;54.77;;
70245;Laerm;57637;49.272;8.590;2023-04-03T03:32:04;50.85;45.66;63.94;;
70245;Laerm;57637;49.272;8.590;2023-04-03T03:34:29;49.50;45.01;55.26;;
70245;Laerm;57637;49.272;8.590;2023-04-03T03:36:55;50.48;45.03;59.40;;
70245;Laerm;57637;49.272;8.590;2023-04-03T03:39:20;49.04;45.07;60.03;;
70245;Laerm;57637;49.272;8.590;2023-04-03T03:41:46;48.71;45.20;56.64;;
70245;Laerm;57637;49.272;8.590;2023-04-03T03:44:12;49.35;45.33;55.68;;
70245;Laerm;57637;49.272;8.590;2023-04-03T03:46:37;48.96;43.59;53.88;;
70245;Laerm;57637;49.272;8.590;2023-04-03T03:49:03;47.80;44.21;52.95;;
70245;Laerm;57637;49.272;8.590;2023-04-03T03:51:28;48.07;44.96;52.38;;
70245;Laerm;57637;49.272;8.590;2023-04-03T03:53:53;49.27;44.75;55.61;;
70245;Laerm;57637;49.272;8.590;2023-04-03T03:56:19;48.79;44.48;53.38;;
70245;Laerm;57637;49.272;8.590;2023-04-03T03:58:45;48.18;43.94;53.67;;
70245;Laerm;57637;49.272;8.590;2023-04-03T04:01:10;48.83;43.77;55.62;;
70245;Laerm;57637;49.272;8.590;2023-04-03T04:03:36;48.34;42.94;63.63;;
70245;Laerm;57637;49.272;8.590;2023-04-03T04:06:02;47.88;43.93;54.66;;
70245;Laerm;57637;49.272;8.590;2023-04-03T04:08:27;50.77;45.04;73.13;;
70245;Laerm;57637;49.272;8.590;2023-04-03T04:10:53;50.13;44.68;66.81;;
70245;Laerm;57637;49.272;8.590;2023-04-03T04:13:18;48.77;45.13;51.88;;
70245;Laerm;57637;49.272;8.590;2023-04-03T04:15:44;48.14;44.49;53.11;;
70245;Laerm;57637;49.272;8.590;2023-04-03T04:18:09;48.28;44.13;54.74;;
70245;Laerm;57637;49.272;8.590;2023-04-03T04:20:34;48.95;45.08;61.32;;
70245;Laerm;57637;49.272;8.590;2023-04-03T04:23:00;48.96;44.62;62.93;;
70245;Laerm;57637;49.272;8.590;2023-04-03T04:25:25;49.42;46.01;52.94;;
70245;Laerm;57637;49.272;8.590;2023-04-03T04:27:50;50.77;47.57;53.85;;
70245;Laerm;57637;49.272;8.590;2023-04-03T04:30:16;51.30;48.18;56.86;;
70245;Laerm;57637;49.272;8.590;2023-04-03T04:32:41;51.52;47.58;55.39;;
70245;Laerm;57637;49.272;8.590;2023-04-03T04:35:07;51.39;47.77;56.19;;
70245;Laerm;57637;49.272;8.590;2023-04-03T04:37:32;50.76;46.93;55.81;;
70245;Laerm;57637;49.272;8.590;2023-04-03T04:39:58;54.75;46.66;78.94;;
70245;Laerm;57637;49.272;8.590;2023-04-03T04:42:23;50.96;47.56;57.02;;
70245;Laerm;57637;49.272;8.590;2023-04-03T04:44:49;51.45;47.39;60.73;;
70245;Laerm;57637;49.272;8.590;2023-04-03T04:47:14;60.37;48.19;74.45;;
70245;Laerm;57637;49.272;8.590;2023-04-03T04:49:40;56.91;48.13;72.84;;
70245;Laerm;57637;49.272;8.590;2023-04-03T04:52:05;57.22;48.17;72.66;;
70245;Laerm;57637;49.272;8.590;2023-04-03T04:54:31;55.65;48.58;71.62;;
70245;Laerm;57637;49.272;8.590;2023-04-03T04:56:57;57.59;47.79;72.66;;
70245;Laerm;57637;49.272;8.590;2023-04-03T04:59:22;57.32;48.09;71.48;;
70245;Laerm;57637;49.272;8.590;2023-04-03T05:01:50;57.98;48.67;74.24;;
70245;Laerm;57637;49.272;8.590;2023-04-03T05:04:16;54.31;49.61;69.68;;
70245;Laerm;57637;49.272;8.590;2023-04-03T05:06:41;52.61;49.21;62.52;;
70245;Laerm;57637;49.272;8.590;2023-04-03T05:09:07;53.04;49.15;63.95;;
70245;Laerm;57637;49.272;8.590;2023-04-03T05:11:32;54.99;49.54;74.44;;
70245;Laerm;57637;49.272;8.590;2023-04-03T05:13:58;53.51;49.68;60.79;;
70245;Laerm;57637;49.272;8.590;2023-04-03T05:16:23;54.13;49.96;68.30;;
70245;Laerm;57637;49.272;8.590;2023-04-03T05:18:48;55.08;51.16;65.81;;
70245;Laerm;57637;49.272;8.590;2023-04-03T05:21:14;53.50;49.48;65.47;;
70245;Laerm;57637;49.272;8.590;2023-04-03T05:23:39;53.51;49.41;65.06;;
70245;Laerm;57637;49.272;8.590;2023-04-03T05:26:05;53.15;49.13;66.19;;
70245;Laerm;57637;49.272;8.590;2023-04-03T05:28:31;53.31;48.78;68.71;;
70245;Laerm;57637;49.272;8.590;2023-04-03T05:30:57;55.50;48.98;72.83;;
70245;Laerm;57637;49.272;8.590;2023-04-03T05:33:24;55.39;49.64;67.91;;
70245;Laerm;57637;49.272;8.590;2023-04-03T05:35:49;52.37;48.74;63.67;;
70245;Laerm;57637;49.272;8.590;2023-04-03T05:38:15;53.23;49.42;60.15;;
70245;Laerm;57637;49.272;8.590;2023-04-03T05:40:41;53.78;49.56;63.53;;
70245;Laerm;57637;49.272;8.590;2023-04-03T05:43:07;53.86;48.36;63.58;;
70245;Laerm;57637;49.272;8.590;2023-04-03T05:45:32;54.88;47.97;71.14;;
70245;Laerm;57637;49.272;8.590;2023-04-03T05:47:57;55.99;49.46;74.71;;
70245;Laerm;57637;49.272;8.590;2023-04-03T05:50:23;54.35;50.43;60.27;;
70245;Laerm;57637;49.272;8.590;2023-04-03T05:52:49;54.42;49.89;64.85;;
70245;Laerm;57637;49.272;8.590;2023-04-03T05:55:16;54.12;49.42;65.38;;
70245;Laerm;57637;49.272;8.590;2023-04-03T05:57:42;52.42;48.01;59.89;;
70245;Laerm;57637;49.272;8.590;2023-04-03T06:00:08;53.88;48.13;62.50;;
70245;Laerm;57637;49.272;8.590;2023-04-03T06:02:35;53.14;48.56;67.71;;
70245;Laerm;57637;49.272;8.590;2023-04-03T06:05:01;52.26;48.24;58.95;;
70245;Laerm;57637;49.272;8.590;2023-04-03T06:07:27;51.95;47.31;60.62;;
70245;Laerm;57637;49.272;8.590;2023-04-03T06:09:54;52.22;47.47;73.24;;
70245;Laerm;57637;49.272;8.590;2023-04-03T06:12:21;53.04;47.77;70.88;;
70245;Laerm;57637;49.272;8.590;2023-04-03T06:14:53;54.62;49.16;73.47;;
70245;Laerm;57637;49.272;8.590;2023-04-03T06:17:26;53.03;49.41;58.68;;
70245;Laerm;57637;49.272;8.590;2023-04-03T06:19:52;52.70;49.17;57.81;;
70245;Laerm;57637;49.272;8.590;2023-04-03T06:22:18;52.13;48.45;57.41;;
70245;Laerm;57637;49.272;8.590;2023-04-03T06:24:43;52.21;48.74;60.15;;
70245;Laerm;57637;49.272;8.590;2023-04-03T06:27:09;52.46;49.27;59.31;;
70245;Laerm;57637;49.272;8.590;2023-04-03T06:29:35;51.68;47.70;60.59;;
70245;Laerm;57637;49.272;8.590;2023-04-03T06:32:02;51.78;47.37;66.13;;
70245;Laerm;57637;49.272;8.590;2023-04-03T06:34:27;50.66;45.99;61.46;;
70245;Laerm;57637;49.272;8.590;2023-04-03T06:36:52;50.21;46.70;58.92;;
70245;Laerm;57637;49.272;8.590;2023-04-03T06:39:21;49.73;44.98;69.05;;
70245;Laerm;57637;49.272;8.590;2023-04-03T06:41:47;50.39;44.81;67.93;;
70245;Laerm;57637;49.272;8.590;2023-04-03T06:44:13;48.45;44.51;55.51;;
70245;Laerm;57637;49.272;8.590;2023-04-03T06:46:40;49.06;44.32;62.79;;
70245;Laerm;57637;49.272;8.590;2023-04-03T06:49:06;48.00;44.15;54.86;;
70245;Laerm;57637;49.272;8.590;2023-04-03T06:51:35;48.01;44.12;62.76;;
70245;Laerm;57637;49.272;8.590;2023-04-03T06:54:02;55.87;42.95;74.04;;
70245;Laerm;57637;49.272;8.590;2023-04-03T06:56:28;49.18;43.34;61.84;;
70245;Laerm;57637;49.272;8.590;2023-04-03T06:58:55;49.52;43.23;66.41;;
70245;Laerm;57637;49.272;8.590;2023-04-03T07:01:25;47.78;43.36;58.71;;
70245;Laerm;57637;49.272;8.590;2023-04-03T07:03:52;47.32;43.23;58.18;;
70245;Laerm;57637;49.272;8.590;2023-04-03T07:06:18;49.61;43.63;68.46;;
70245;Laerm;57637;49.272;8.590;2023-04-03T07:08:44;47.74;42.68;62.31;;
70245;Laerm;57637;49.272;8.590;2023-04-03T07:11:12;48.31;43.80;62.93;;
70245;Laerm;57637;49.272;8.590;2023-04-03T07:13:37;47.43;43.08;59.09;;
70245;Laerm;57637;49.272;8.590;2023-04-03T07:16:04;48.42;43.32;60.50;;
70245;Laerm;57637;49.272;8.590;2023-04-03T07:18:31;48.19;43.94;63.89;;
70245;Laerm;57637;49.272;8.590;2023-04-03T07:20:57;49.47;43.77;64.75;;
70245;Laerm;57637;49.272;8.590;2023-04-03T07:23:22;47.62;42.14;60.96;;
70245;Laerm;57637;49.272;8.590;2023-04-03T07:25:49;47.88;44.20;59.18;;
70245;Laerm;57637;49.272;8.590;2023-04-03T07:28:16;47.45;42.80;59.74;;
70245;Laerm;57637;49.272;8.590;2023-04-03T07:31:05;50.53;43.74;65.11;;
70245;Laerm;57637;49.272;8.590;2023-04-03T07:33:36;50.32;43.32;65.01;;
70245;Laerm;57637;49.272;8.590;2023-04-03T07:36:03;48.60;43.05;64.47;;
70245;Laerm;57637;49.272;8.590;2023-04-03T07:38:28;50.69;43.84;68.01;;
70245;Laerm;57637;49.272;8.590;2023-04-03T07:40:54;48.99;43.27;63.63;;
70245;Laerm;57637;49.272;8.590;2023-04-03T07:43:21;49.01;43.56;69.41;;
70245;Laerm;57637;49.272;8.590;2023-04-03T07:45:48;46.70;43.29;55.46;;
70245;Laerm;57637;49.272;8.590;2023-04-03T07:48:18;49.07;43.72;58.72;;
70245;Laerm;57637;49.272;8.590;2023-04-03T07:50:43;46.68;41.69;52.75;;
70245;Laerm;57637;49.272;8.590;2023-04-03T07:53:09;47.10;42.77;63.41;;
70245;Laerm;57637;49.272;8.590;2023-04-03T07:55:35;49.44;42.26;68.10;;
70245;Laerm;57637;49.272;8.590;2023-04-03T07:58:11;48.11;43.59;61.88;;
70245;Laerm;57637;49.272;8.590;2023-04-03T08:00:38;47.82;41.35;61.99;;
70245;Laerm;57637;49.272;8.590;2023-04-03T08:03:04;47.34;42.17;63.20;;
70245;Laerm;57637;49.272;8.590;2023-04-03T08:05:30;47.16;42.32;62.65;;
70245;Laerm;57637;49.272;8.590;2023-04-03T08:07:56;48.54;43.47;67.42;;
70245;Laerm;57637;49.272;8.590;2023-04-03T08:10:21;47.51;41.84;65.48;;
70245;Laerm;57637;49.272;8.590;2023-04-03T08:12:47;49.87;42.19;71.30;;
70245;Laerm;57637;49.272;8.590;2023-04-03T08:15:13;47.96;42.61;62.26;;
70245;Laerm;57637;49.272;8.590;2023-04-03T08:17:38;49.65;42.96;69.01;;
70245;Laerm;57637;49.272;8.590;2023-04-03T08:20:05;50.32;43.27;66.99;;
70245;Laerm;57637;49.272;8.590;2023-04-03T08:22:32;49.01;42.95;67.44;;
70245;Laerm;57637;49.272;8.590;2023-04-03T08:24:57;46.32;41.55;63.36;;
70245;Laerm;57637;49.272;8.590;2023-04-03T08:27:22;46.35;41.78;58.26;;
70245;Laerm;57637;49.272;8.590;2023-04-03T08:29:48;52.55;43.19;66.70;;
70245;Laerm;57637;49.272;8.590;2023-04-03T08:32:13;48.16;42.78;66.74;;
70245;Laerm;57637;49.272;8.590;2023-04-03T08:34:39;48.00;42.50;65.39;;
70245;Laerm;57637;49.272;8.590;2023-04-03T08:37:05;48.75;43.63;66.14;;
70245;Laerm;57637;49.272;8.590;2023-04-03T08:39:31;47.21;41.23;58.29;;
70245;Laerm;57637;49.272;8.590;2023-04-03T08:41:58;48.68;43.77;59.04;;
70245;Laerm;57637;49.272;8.590;2023-04-03T08:47:14;49.74;43.11;68.37;;
70245;Laerm;57637;49.272;8.590;2023-04-03T08:49:43;47.48;42.80;67.02;;
70245;Laerm;57637;49.272;8.590;2023-04-03T08:52:18;49.38;42.36;72.24;;
70245;Laerm;57637;49.272;8.590;2023-04-03T08:57:45;48.94;42.56;63.83;;
70245;Laerm;57637;49.272;8.590;2023-04-03T09:02:53;68.30;43.72;77.47;;
70245;Laerm;57637;49.272;8.590;2023-04-03T09:05:31;47.17;42.57;59.09;;
70245;Laerm;57637;49.272;8.590;2023-04-03T09:07:59;49.87;42.84;73.60;;
70245;Laerm;57637;49.272;8.590;2023-04-03T09:10:29;47.35;42.48;66.45;;
70245;Laerm;57637;49.272;8.590;2023-04-03T09:13:03;48.75;42.67;61.76;;
70245;Laerm;57637;49.272;8.590;2023-04-03T09:15:32;49.03;43.84;60.15;;
70245;Laerm;57637;49.272;8.590;2023-04-03T09:18:21;49.12;43.98;63.82;;
70245;Laerm;57637;49.272;8.590;2023-04-03T09:26:08;47.64;42.79;59.46;;
70245;Laerm;57637;49.272;8.590;2023-04-03T09:28:38;47.63;43.35;53.12;;
70245;Laerm;57637;49.272;8.590;2023-04-03T09:31:35;48.36;43.78;59.97;;
70245;Laerm;57637;49.272;8.590;2023-04-03T09:34:10;47.58;42.75;61.48;;
70245;Laerm;57637;49.272;8.590;2023-04-03T09:36:44;47.68;42.77;65.22;;
70245;Laerm;57637;49.272;8.590;2023-04-03T09:39:18;48.02;42.85;69.27;;
70245;Laerm;57637;49.272;8.590;2023-04-03T09:42:21;48.11;43.26;63.01;;
70245;Laerm;57637;49.272;8.590;2023-04-03T09:45:02;50.58;43.26;65.36;;
70245;Laerm;57637;49.272;8.590;2023-04-03T09:47:30;57.05;43.85;77.50;;
70245;Laerm;57637;49.272;8.590;2023-04-03T09:52:47;46.35;42.78;52.69;;
70245;Laerm;57637;49.272;8.590;2023-04-03T09:55:26;46.13;40.99;54.92;;
70245;Laerm;57637;49.272;8.590;2023-04-03T09:58:01;62.89;43.10;84.78;;
70245;Laerm;57637;49.272;8.590;2023-04-03T10:00:38;64.90;44.16;79.84;;
70245;Laerm;57637;49.272;8.590;2023-04-03T10:03:05;65.53;44.03;82.30;;
70245;Laerm;57637;49.272;8.590;2023-04-03T10:05:37;63.81;46.14;77.51;;
70245;Laerm;57637;49.272;8.590;2023-04-03T10:11:15;60.44;42.85;67.53;;
70245;Laerm;57637;49.272;8.590;2023-04-03T10:16:26;48.99;41.10;76.37;;
70245;Laerm;57637;49.272;8.590;2023-04-03T10:19:03;47.52;43.39;66.71;;
70245;Laerm;57637;49.272;8.590;2023-04-03T10:21:41;47.34;42.81;54.75;;
70245;Laerm;57637;49.272;8.590;2023-04-03T10:24:22;47.24;41.20;57.25;;
70245;Laerm;57637;49.272;8.590;2023-04-03T10:27:30;51.26;43.14;72.33;;
70245;Laerm;57637;49.272;8.590;2023-04-03T10:32:44;47.11;41.39;71.89;;
70245;Laerm;57637;49.272;8.590;2023-04-03T10:35:20;49.03;42.17;66.06;;
70245;Laerm;57637;49.272;8.590;2023-04-03T10:40:59;49.72;41.81;70.40;;
70245;Laerm;57637;49.272;8.590;2023-04-03T10:43:48;48.57;41.63;70.73;;
70245;Laerm;57637;49.272;8.590;2023-04-03T10:46:27;46.92;42.33;72.17;;
70245;Laerm;57637;49.272;8.590;2023-04-03T10:49:05;48.48;41.10;73.54;;
70245;Laerm;57637;49.272;8.590;2023-04-03T10:51:48;47.18;40.90;68.32;;
70245;Laerm;57637;49.272;8.590;2023-04-03T10:54:24;46.97;40.53;65.59;;
70245;Laerm;57637;49.272;8.590;2023-04-03T10:57:01;48.57;42.47;66.79;;
70245;Laerm;57637;49.272;8.590;2023-04-03T11:02:07;47.96;42.53;64.10;;
70245;Laerm;57637;49.272;8.590;2023-04-03T11:04:39;50.77;42.94;74.43;;
70245;Laerm;57637;49.272;8.590;2023-04-03T11:07:17;47.28;43.65;60.48;;
70245;Laerm;57637;49.272;8.590;2023-04-03T11:09:52;48.15;43.25;63.65;;
70245;Laerm;57637;49.272;8.590;2023-04-03T11:12:24;55.93;43.49;79.00;;
70245;Laerm;57637;49.272;8.590;2023-04-03T11:14:53;51.17;43.53;69.20;;
70245;Laerm;57637;49.272;8.590;2023-04-03T11:19:59;50.35;43.58;69.00;;
70245;Laerm;57637;49.272;8.590;2023-04-03T11:22:45;51.43;43.19;74.81;;
70245;Laerm;57637;49.272;8.590;2023-04-03T11:27:56;48.95;43.41;63.23;;
70245;Laerm;57637;49.272;8.590;2023-04-03T11:36:12;49.22;41.32;67.72;;
70245;Laerm;57637;49.272;8.590;2023-04-03T11:38:45;47.43;42.95;63.17;;
70245;Laerm;57637;49.272;8.590;2023-04-03T11:41:12;47.39;42.64;57.33;;
70245;Laerm;57637;49.272;8.590;2023-04-03T11:43:55;48.53;42.70;64.82;;
70245;Laerm;57637;49.272;8.590;2023-04-03T11:46:51;48.24;43.13;66.79;;
70245;Laerm;57637;49.272;8.590;2023-04-03T11:49:54;48.14;43.98;63.88;;
70245;Laerm;57637;49.272;8.590;2023-04-03T12:26:30;49.81;42.74;75.96;;
70245;Laerm;57637;49.272;8.590;2023-04-03T12:28:57;51.73;43.77;68.16;;
70245;Laerm;57637;49.272;8.590;2023-04-03T12:31:25;48.14;41.81;64.70;;
70245;Laerm;57637;49.272;8.590;2023-04-03T12:34:15;46.73;42.02;64.33;;
70245;Laerm;57637;49.272;8.590;2023-04-03T12:45:17;61.30;42.93;78.62;;
70245;Laerm;57637;49.272;8.590;2023-04-03T12:47:44;48.43;42.19;63.65;;
70245;Laerm;57637;49.272;8.590;2023-04-03T12:50:29;46.76;42.79;61.19;;
70245;Laerm;57637;49.272;8.590;2023-04-03T12:53:01;47.32;42.73;60.10;;
70245;Laerm;57637;49.272;8.590;2023-04-03T12:55:29;47.54;42.39;57.28;;
70245;Laerm;57637;49.272;8.590;2023-04-03T12:57:55;47.90;43.28;54.69;;
70245;Laerm;57637;49.272;8.590;2023-04-03T13:02:47;48.06;42.43;57.54;;
70245;Laerm;57637;49.272;8.590;2023-04-03T13:05:19;47.57;42.26;61.96;;
70245;Laerm;57637;49.272;8.590;2023-04-03T13:08:07;57.02;42.58;77.52;;
70245;Laerm;57637;49.272;8.590;2023-04-03T13:10:54;62.62;40.94;90.03;;
70245;Laerm;57637;49.272;8.590;2023-04-03T13:13:21;48.82;41.71;74.89;;
70245;Laerm;57637;49.272;8.590;2023-04-03T13:15:48;47.22;40.94;59.50;;
70245;Laerm;57637;49.272;8.590;2023-04-03T13:18:27;46.48;41.12;58.86;;
70245;Laerm;57637;49.272;8.590;2023-04-03T13:20:59;49.18;42.71;60.83;;
70245;Laerm;57637;49.272;8.590;2023-04-03T13:23:26;47.67;42.25;59.68;;
70245;Laerm;57637;49.272;8.590;2023-04-03T13:25:52;50.31;42.36;67.00;;
70245;Laerm;57637;49.272;8.590;2023-04-03T13:28:21;47.34;42.63;60.45;;
70245;Laerm;57637;49.272;8.590;2023-04-03T13:33:29;46.63;42.28;52.50;;
70245;Laerm;57637;49.272;8.590;2023-04-03T13:36:19;50.66;43.09;65.24;;
70245;Laerm;57637;49.272;8.590;2023-04-03T13:38:45;47.90;41.28;62.55;;
70245;Laerm;57637;49.272;8.590;2023-04-03T13:41:27;50.74;43.70;67.06;;
70245;Laerm;57637;49.272;8.590;2023-04-03T13:43:54;51.00;42.67;69.76;;
70245;Laerm;57637;49.272;8.590;2023-04-03T13:48:47;54.81;41.58;74.01;;
70245;Laerm;57637;49.272;8.590;2023-04-03T13:53:51;55.66;41.90;74.68;;
70245;Laerm;57637;49.272;8.590;2023-04-03T13:56:33;61.61;41.36;94.77;;
70245;Laerm;57637;49.272;8.590;2023-04-03T13:59:03;45.92;41.19;58.46;;
70245;Laerm;57637;49.272;8.590;2023-04-03T14:01:43;45.65;39.74;56.88;;
70245;Laerm;57637;49.272;8.590;2023-04-03T14:04:21;45.65;40.63;69.04;;
70245;Laerm;57637;49.272;8.590;2023-04-03T14:06:48;46.18;41.97;52.93;;
70245;Laerm;57637;49.272;8.590;2023-04-03T14:09:16;46.27;39.82;53.57;;
70245;Laerm;57637;49.272;8.590;2023-04-03T14:11:42;47.05;40.87;64.48;;
70245;Laerm;57637;49.272;8.590;2023-04-03T14:14:35;51.21;42.19;67.51;;
70245;Laerm;57637;49.272;8.590;2023-04-03T14:17:09;47.07;42.23;65.02;;
70245;Laerm;57637;49.272;8.590;2023-04-03T14:19:35;46.57;42.66;54.49;;
70245;Laerm;57637;49.272;8.590;2023-04-03T14:22:23;45.42;41.64;49.21;;
70245;Laerm;57637;49.272;8.590;2023-04-03T14:24:48;46.59;41.31;62.05;;
70245;Laerm;57637;49.272;8.590;2023-04-03T14:27:29;47.63;41.11;70.79;;
70245;Laerm;57637;49.272;8.590;2023-04-03T14:29:57;47.81;42.69;68.12;;
70245;Laerm;57637;49.272;8.590;2023-04-03T14:32:24;59.41;43.45;75.89;;
70245;Laerm;57637;49.272;8.590;2023-04-03T14:34:50;47.89;42.23;59.41;;
70245;Laerm;57637;49.272;8.590;2023-04-03T14:37:19;48.35;42.09;64.32;;
70245;Laerm;57637;49.272;8.590;2023-04-03T14:39:46;48.67;41.64;74.89;;
70245;Laerm;57637;49.272;8.590;2023-04-03T14:42:18;46.09;41.72;60.89;;
70245;Laerm;57637;49.272;8.590;2023-04-03T14:44:44;46.60;42.16;61.16;;
70245;Laerm;57637;49.272;8.590;2023-04-03T14:47:12;48.52;42.80;65.58;;
70245;Laerm;57637;49.272;8.590;2023-04-03T14:49:38;46.98;40.49;63.44;;
70245;Laerm;57637;49.272;8.590;2023-04-03T14:52:04;49.53;41.35;73.72;;
70245;Laerm;57637;49.272;8.590;2023-04-03T14:54:30;51.57;41.76;72.00;;
70245;Laerm;57637;49.272;8.590;2023-04-03T14:56:58;55.43;41.71;74.12;;
70245;Laerm;57637;49.272;8.590;2023-04-03T14:59:31;58.52;42.39;87.41;;
70245;Laerm;57637;49.272;8.590;2023-04-03T15:01:57;47.44;42.13;61.23;;
70245;Laerm;57637;49.272;8.590;2023-04-03T15:04:23;50.30;43.03;68.88;;
70245;Laerm;57637;49.272;8.590;2023-04-03T15:32:48;49.23;41.16;73.53;;
70245;Laerm;57637;49.272;8.590;2023-04-03T15:35:14;52.35;41.82;73.29;;
70245;Laerm;57637;49.272;8.590;2023-04-03T15:37:40;50.41;41.52;76.10;;
70245;Laerm;57637;49.272;8.590;2023-04-03T15:40:06;46.49;40.79;66.31;;
70245;Laerm;57637;49.272;8.590;2023-04-03T15:42:32;45.48;40.99;62.81;;
70245;Laerm;57637;49.272;8.590;2023-04-03T15:44:58;46.85;40.25;66.66;;
70245;Laerm;57637;49.272;8.590;2023-04-03T15:47:24;45.35;40.72;62.09;;
70245;Laerm;57637;49.272;8.590;2023-04-03T15:49:50;45.25;40.75;60.37;;
70245;Laerm;57637;49.272;8.590;2023-04-03T15:52:15;47.43;39.90;67.40;;
70245;Laerm;57637;49.272;8.590;2023-04-03T15:54:41;47.49;41.37;58.85;;
70245;Laerm;57637;49.272;8.590;2023-04-03T15:57:07;47.26;41.94;60.68;;
70245;Laerm;57637;49.272;8.590;2023-04-03T15:59:32;49.26;39.93;75.40;;
70245;Laerm;57637;49.272;8.590;2023-04-03T16:01:59;48.88;40.59;74.82;;
70245;Laerm;57637;49.272;8.590;2023-04-03T16:04:26;48.15;40.07;67.31;;